createdAt,value
2023-04-05T00:01:39.152Z,68.02
2023-04-05T00:04:08.436Z,67.61
2023-04-05T00:06:40.004Z,67.92
2023-04-05T00:09:09.296Z,67.66
2023-04-05T00:11:38.006Z,68.46
2023-04-05T00:14:07.058Z,69.01
2023-04-05T00:16:37.372Z,67.95
2023-04-05T00:19:06.561Z,68.08
2023-04-05T00:21:35.587Z,67.99
2023-04-05T00:24:05.369Z,68.47
2023-04-05T00:26:34.325Z,68.40
2023-04-05T00:29:03.319Z,68.55
2023-04-05T00:31:32.206Z,69.10
2023-04-05T00:34:02.789Z,69.15
2023-04-05T00:36:32.226Z,68.97
2023-04-05T00:39:01.223Z,69.19
2023-04-05T00:41:29.949Z,69.68
2023-04-05T00:44:00.021Z,70.31
2023-04-05T00:46:29.823Z,69.66
2023-04-05T00:48:59.187Z,69.71
2023-04-05T00:51:30.086Z,70.19
2023-04-05T00:53:59.236Z,69.55
2023-04-05T00:56:29.344Z,69.42
2023-04-05T00:58:58.601Z,69.97
2023-04-05T01:01:29.005Z,70.10
2023-04-05T01:04:05.430Z,70.77
2023-04-05T01:06:54.452Z,70.95
2023-04-05T01:09:38.324Z,70.63
2023-04-05T01:12:11.234Z,70.27
2023-04-05T01:14:50.093Z,70.30
2023-04-05T01:17:22.341Z,70.00
2023-04-05T01:19:54.449Z,69.99
2023-04-05T01:22:55.624Z,70.28
2023-04-05T01:26:00.135Z,70.96
2023-04-05T01:29:15.317Z,71.50
2023-04-05T01:31:55.108Z,71.06
2023-04-05T01:34:34.997Z,71.74
2023-04-05T01:37:12.657Z,71.81
2023-04-05T01:39:41.994Z,72.21
2023-04-05T01:42:12.076Z,72.21
2023-04-05T01:44:42.328Z,72.34
2023-04-05T01:47:12.831Z,72.07
2023-04-05T01:49:41.620Z,71.84
2023-04-05T01:52:10.842Z,71.96
2023-04-05T01:54:39.725Z,71.79
2023-04-05T01:57:10.553Z,71.70
2023-04-05T01:59:39.320Z,71.68
2023-04-05T02:02:08.380Z,72.26
2023-04-05T02:04:38.795Z,72.03
2023-04-05T02:07:07.846Z,71.90
2023-04-05T02:09:36.548Z,71.81
2023-04-05T02:12:05.913Z,72.22
2023-04-05T02:14:35.423Z,72.85
2023-04-05T02:17:04.472Z,72.72
2023-04-05T02:19:40.910Z,72.50
2023-04-05T02:22:11.721Z,72.14
2023-04-05T02:24:40.531Z,71.84
2023-04-05T02:27:09.600Z,72.27
2023-04-05T02:29:38.812Z,72.88
2023-04-05T02:32:07.895Z,72.67
2023-04-05T02:34:37.098Z,73.10
2023-04-05T02:37:06.414Z,72.65
2023-04-05T02:39:36.853Z,73.37
2023-04-05T02:42:06.586Z,73.23
2023-04-05T02:44:35.471Z,73.36
2023-04-05T02:47:04.917Z,73.21
2023-04-05T02:49:34.735Z,73.03
2023-04-05T02:52:06.682Z,73.05
2023-04-05T02:54:37.850Z,73.37
2023-04-05T02:57:10.657Z,72.71
2023-04-05T02:59:48.437Z,72.65
2023-04-05T03:02:17.533Z,73.22
2023-04-05T03:04:46.643Z,73.18
2023-04-05T03:07:18.727Z,72.55
2023-04-05T03:09:51.433Z,72.66
2023-04-05T03:12:21.405Z,73.08
2023-04-05T03:14:51.069Z,73.12
2023-04-05T03:17:24.480Z,73.14
2023-04-05T03:20:02.382Z,72.87
2023-04-05T03:22:32.064Z,72.39
2023-04-05T03:25:03.557Z,72.63
2023-04-05T03:27:33.935Z,73.23
2023-04-05T03:30:09.191Z,73.19
2023-04-05T03:32:43.832Z,73.42
2023-04-05T03:35:22.580Z,73.35
2023-04-05T03:37:52.500Z,73.54
2023-04-05T03:40:23.560Z,73.29
2023-04-05T03:42:53.723Z,73.02
2023-04-05T03:45:24.580Z,73.92
2023-04-05T03:47:55.130Z,74.01
2023-04-05T03:50:24.322Z,74.14
2023-04-05T03:52:54.914Z,73.67
2023-04-05T03:55:25.934Z,74.10
2023-04-05T03:57:55.513Z,73.62
2023-04-05T04:00:34.449Z,73.56
2023-04-05T04:03:17.829Z,73.50
2023-04-05T04:05:50.932Z,73.17
2023-04-05T04:08:20.900Z,73.36
2023-04-05T04:10:52.123Z,73.59
2023-04-05T04:13:25.494Z,73.58
2023-04-05T04:16:02.313Z,73.01
2023-04-05T04:18:49.880Z,73.32
2023-04-05T04:21:52.479Z,72.95
2023-04-05T04:24:50.206Z,72.80
2023-04-05T04:27:46.750Z,72.65
2023-04-05T04:30:23.531Z,73.35
2023-04-05T04:33:09.318Z,72.58
2023-04-05T04:35:47.258Z,72.75
2023-04-05T04:38:19.011Z,72.86
2023-04-05T04:41:08.758Z,72.84
2023-04-05T04:44:04.393Z,72.56
2023-04-05T04:46:54.795Z,72.35
2023-04-05T04:49:46.704Z,72.57
2023-04-05T04:52:15.780Z,72.45
2023-04-05T04:54:47.316Z,72.49
2023-04-05T04:57:16.336Z,72.02
2023-04-05T04:59:46.436Z,72.32
2023-04-05T05:02:15.492Z,72.35
2023-04-05T05:04:44.576Z,72.58
2023-04-05T05:07:13.629Z,72.94
2023-04-05T05:09:42.487Z,72.57
2023-04-05T05:12:11.572Z,72.82
2023-04-05T05:14:40.745Z,73.00
2023-04-05T05:17:11.119Z,72.12
2023-04-05T05:19:39.968Z,72.35
2023-04-05T05:22:08.935Z,71.96
2023-04-05T05:24:38.130Z,71.94
2023-04-05T05:27:07.617Z,72.30
2023-04-05T05:29:36.422Z,72.58
2023-04-05T05:32:06.487Z,72.14
2023-04-05T05:34:37.329Z,72.61
2023-04-05T05:37:06.833Z,73.04
2023-04-05T05:39:35.483Z,72.56
2023-04-05T05:42:04.904Z,72.42
2023-04-05T05:44:33.786Z,72.07
2023-04-05T05:47:03.638Z,72.07
2023-04-05T05:49:32.470Z,71.47
2023-04-05T05:52:02.890Z,71.87
2023-04-05T05:54:31.663Z,71.57
2023-04-05T05:57:02.246Z,71.87
2023-04-05T05:59:31.130Z,71.81
2023-04-05T06:02:00.202Z,71.60
2023-04-05T06:04:29.273Z,71.10
2023-04-05T06:06:59.157Z,70.80
2023-04-05T06:09:29.630Z,70.68
2023-04-05T06:11:58.728Z,71.02
2023-04-05T06:14:28.744Z,70.70
2023-04-05T06:16:57.860Z,70.23
2023-04-05T06:19:26.661Z,70.12
2023-04-05T06:21:56.642Z,69.92
2023-04-05T06:24:26.470Z,69.09
2023-04-05T06:26:56.909Z,68.64
2023-04-05T06:29:26.058Z,69.03
2023-04-05T06:31:56.470Z,69.51
2023-04-05T06:34:25.237Z,69.30
2023-04-05T06:36:55.937Z,69.30
2023-04-05T06:39:24.673Z,69.36
2023-04-05T06:41:53.780Z,69.21
2023-04-05T06:44:29.756Z,69.56
2023-04-05T06:46:59.253Z,70.02
2023-04-05T06:49:27.945Z,69.87
2023-04-05T06:51:57.028Z,69.69
2023-04-05T06:54:25.972Z,70.51
2023-04-05T06:56:57.143Z,70.14
2023-04-05T06:59:27.469Z,69.56
2023-04-05T07:01:58.192Z,69.49
2023-04-05T07:04:29.327Z,69.96
2023-04-05T07:06:58.807Z,70.09
2023-04-05T07:09:30.273Z,69.74
2023-04-05T07:11:59.491Z,69.59
2023-04-05T07:14:28.195Z,69.03
2023-04-05T07:16:58.747Z,69.20
2023-04-05T07:19:28.146Z,68.17
2023-04-05T07:21:57.856Z,67.86
2023-04-05T07:24:26.874Z,67.82
2023-04-05T07:26:56.912Z,68.09
2023-04-05T07:29:26.436Z,66.77
2023-04-05T07:31:55.508Z,66.76
2023-04-05T07:34:25.664Z,66.85
2023-04-05T07:36:54.758Z,66.31
2023-04-05T07:39:23.947Z,67.03
2023-04-05T07:41:53.264Z,66.83
2023-04-05T07:44:21.948Z,65.67
2023-04-05T07:46:51.126Z,66.20
2023-04-05T07:49:19.964Z,65.92
2023-04-05T07:51:51.126Z,65.96
2023-04-05T07:54:19.964Z,65.78
2023-04-05T07:56:50.311Z,65.53
2023-04-05T07:59:19.141Z,65.00
2023-04-05T08:01:48.203Z,65.00
2023-04-05T08:04:16.920Z,64.69
2023-04-05T08:06:46.361Z,64.47
2023-04-05T08:09:16.774Z,64.03
2023-04-05T08:11:46.234Z,63.90
2023-04-05T08:14:15.106Z,63.24
2023-04-05T08:16:44.817Z,62.77
2023-04-05T08:19:15.626Z,62.46
2023-04-05T08:21:45.112Z,61.20
2023-04-05T08:24:14.135Z,62.32
2023-04-05T08:26:44.639Z,61.87
2023-04-05T08:29:13.629Z,60.44
2023-04-05T08:31:45.556Z,60.16
2023-04-05T08:34:14.432Z,60.55
2023-04-05T08:36:43.465Z,59.99
2023-04-05T08:39:12.948Z,59.43
2023-04-05T08:41:57.094Z,60.18
2023-04-05T08:44:31.740Z,60.54
2023-04-05T08:47:02.004Z,58.81
2023-04-05T08:49:30.881Z,57.96
2023-04-05T08:52:02.050Z,58.32
2023-04-05T08:54:31.084Z,58.37
2023-04-05T08:57:05.984Z,57.44
2023-04-05T08:59:39.230Z,57.57
2023-04-05T09:02:18.386Z,57.19
2023-04-05T09:04:49.874Z,55.75
2023-04-05T09:07:21.655Z,55.59
2023-04-05T09:09:55.892Z,54.34
2023-04-05T09:12:28.117Z,54.42
2023-04-05T09:14:58.627Z,53.73
2023-04-05T09:17:29.785Z,55.21
2023-04-05T09:19:58.630Z,53.03
2023-04-05T09:22:28.737Z,52.89
2023-04-05T09:24:57.580Z,52.62
2023-04-05T09:27:28.245Z,54.09
2023-04-05T09:30:00.803Z,54.35
2023-04-05T09:32:30.014Z,54.26
2023-04-05T09:35:04.102Z,53.66
2023-04-05T09:37:35.031Z,53.94
2023-04-05T09:40:07.067Z,53.78
2023-04-05T09:42:47.130Z,54.43
2023-04-05T09:45:18.549Z,54.43
2023-04-05T09:48:00.030Z,53.71
2023-04-05T09:50:29.254Z,54.13
2023-04-05T09:53:15.964Z,54.17
2023-04-05T09:55:45.672Z,52.62
2023-04-05T09:58:21.908Z,52.67
2023-04-05T10:01:06.271Z,53.03
2023-04-05T10:03:49.130Z,53.78
2023-04-05T10:06:18.340Z,54.66
2023-04-05T10:08:48.927Z,54.08
2023-04-05T10:11:20.059Z,54.17
2023-04-05T10:13:52.641Z,54.60
2023-04-05T10:16:27.644Z,53.64
2023-04-05T10:18:56.821Z,53.46
2023-04-05T10:21:31.249Z,51.01
2023-04-05T10:24:13.203Z,50.04
2023-04-05T10:26:56.171Z,50.49
2023-04-05T10:29:39.393Z,49.55
2023-04-05T10:32:20.185Z,48.73
2023-04-05T10:35:07.097Z,48.62
2023-04-05T10:37:55.024Z,48.99
2023-04-05T10:40:26.534Z,49.69
2023-04-05T10:42:55.394Z,48.92
2023-04-05T10:45:28.675Z,48.53
2023-04-05T10:48:07.060Z,48.74
2023-04-05T10:50:38.385Z,47.70
2023-04-05T10:53:10.387Z,47.94
2023-04-05T10:55:40.645Z,47.68
2023-04-05T10:58:11.120Z,47.27
2023-04-05T11:00:42.553Z,46.61
2023-04-05T11:03:11.714Z,45.88
2023-04-05T11:05:41.293Z,46.60
2023-04-05T11:08:13.833Z,44.20
2023-04-05T11:10:43.203Z,44.94
2023-04-05T11:13:12.436Z,44.50
2023-04-05T11:15:43.023Z,44.21
2023-04-05T11:18:13.412Z,43.87
2023-04-05T11:20:52.454Z,43.42
2023-04-05T11:23:23.268Z,43.06
2023-04-05T11:25:55.711Z,43.11
2023-04-05T11:28:32.031Z,43.25
2023-04-05T11:31:16.699Z,43.36
2023-04-05T11:34:10.210Z,41.64
2023-04-05T11:36:45.922Z,42.08
2023-04-05T11:39:28.400Z,41.21
2023-04-05T11:42:10.414Z,42.47
2023-04-05T11:44:45.930Z,42.04
2023-04-05T11:47:21.733Z,42.11
2023-04-05T11:49:52.492Z,41.78
2023-04-05T11:52:22.764Z,41.31
2023-04-05T11:54:51.645Z,40.93
2023-04-05T11:57:23.439Z,39.84
2023-04-05T11:59:53.283Z,39.77
2023-04-05T12:02:24.252Z,39.07
2023-04-05T12:04:58.115Z,39.40
2023-04-05T12:07:29.516Z,38.29
2023-04-05T12:10:05.567Z,40.35
2023-04-05T12:12:39.657Z,38.84
2023-04-05T12:15:11.998Z,38.39
2023-04-05T12:17:45.461Z,39.27
2023-04-05T12:20:17.360Z,40.00
2023-04-05T12:22:49.445Z,40.09
2023-04-05T12:25:21.030Z,39.25
2023-04-05T12:27:50.185Z,40.68
2023-04-05T12:30:21.386Z,40.24
2023-04-05T12:32:55.223Z,39.99
2023-04-05T12:35:32.933Z,40.26
2023-04-05T12:38:03.375Z,39.90
2023-04-05T12:40:33.094Z,39.96
2023-04-05T12:43:06.892Z,40.65
2023-04-05T12:45:41.806Z,40.42
2023-04-05T12:48:15.973Z,40.27
2023-04-05T12:50:47.275Z,40.51
2023-04-05T12:53:21.417Z,41.23
2023-04-05T12:55:52.353Z,40.80
2023-04-05T12:58:22.989Z,40.89
2023-04-05T13:00:51.838Z,39.74
2023-04-05T13:03:23.849Z,40.14
2023-04-05T13:05:54.039Z,40.23
2023-04-05T13:08:23.358Z,40.05
2023-04-05T13:10:57.690Z,40.68
2023-04-05T13:13:27.344Z,41.11
2023-04-05T13:15:56.283Z,41.13
2023-04-05T13:18:26.720Z,41.86
2023-04-05T13:20:55.677Z,40.90
2023-04-05T13:23:24.813Z,40.14
2023-04-05T13:25:53.647Z,40.42
2023-04-05T13:28:22.682Z,40.70
2023-04-05T13:30:52.861Z,40.93
2023-04-05T13:33:23.622Z,40.80
2023-04-05T13:35:54.044Z,40.28
2023-04-05T13:38:23.226Z,39.78
2023-04-05T13:40:52.195Z,39.76
2023-04-05T13:43:21.264Z,40.97
2023-04-05T13:45:50.770Z,41.21
2023-04-05T13:48:19.781Z,40.80
2023-04-05T13:50:48.716Z,42.07
2023-04-05T13:53:19.144Z,41.52
2023-04-05T13:55:48.052Z,40.88
2023-04-05T13:58:17.097Z,41.79
2023-04-05T14:00:46.036Z,41.92
2023-04-05T14:03:15.164Z,41.58
2023-04-05T14:05:44.045Z,41.70
2023-04-05T14:08:13.046Z,40.09
2023-04-05T14:10:43.604Z,40.39
2023-04-05T14:13:16.322Z,39.95
2023-04-05T14:15:45.178Z,40.98
2023-04-05T14:18:14.251Z,40.77
2023-04-05T14:20:43.421Z,41.60
2023-04-05T14:23:12.665Z,41.57
2023-04-05T14:25:43.013Z,41.98
2023-04-05T14:28:12.265Z,42.39
2023-04-05T14:30:41.834Z,42.24
2023-04-05T14:33:11.310Z,42.08
2023-04-05T14:35:40.218Z,42.49
2023-04-05T14:38:09.595Z,43.09
2023-04-05T14:40:38.883Z,43.32
2023-04-05T14:43:09.382Z,42.99
2023-04-05T14:45:38.353Z,42.86
2023-04-05T14:48:07.793Z,42.69
2023-04-05T14:50:36.719Z,42.14
2023-04-05T14:53:05.875Z,43.25
2023-04-05T14:55:34.719Z,42.45
2023-04-05T14:58:03.765Z,42.62
2023-04-05T15:00:35.579Z,42.58
2023-04-05T15:03:05.172Z,42.34
2023-04-05T15:05:34.059Z,42.82
2023-04-05T15:08:03.140Z,42.65
2023-04-05T15:10:32.044Z,43.14
2023-04-05T15:13:01.292Z,42.69
2023-04-05T15:15:30.105Z,42.85
2023-04-05T15:18:00.671Z,43.26
2023-04-05T15:20:29.614Z,42.89
2023-04-05T15:22:58.843Z,43.69
2023-04-05T15:25:27.710Z,42.78
2023-04-05T15:28:00.208Z,42.72
2023-04-05T15:30:31.766Z,42.36
2023-04-05T15:33:02.407Z,42.60
2023-04-05T15:35:32.017Z,43.61
2023-04-05T15:38:01.802Z,43.35
2023-04-05T15:40:30.529Z,43.70
2023-04-05T15:43:00.290Z,43.95
2023-04-05T15:45:29.475Z,43.51
2023-04-05T15:47:58.560Z,43.36
2023-04-05T15:50:28.874Z,43.44
2023-04-05T15:52:58.086Z,44.09
2023-04-05T15:55:26.863Z,43.34
2023-04-05T15:57:55.938Z,44.45
2023-04-05T16:00:24.933Z,45.00
2023-04-05T16:02:56.072Z,44.01
2023-04-05T16:05:26.047Z,43.88
2023-04-05T16:07:56.856Z,44.95
2023-04-05T16:10:26.459Z,44.64
2023-04-05T16:12:55.704Z,44.71
2023-04-05T16:15:24.642Z,44.73
2023-04-05T16:17:53.701Z,45.19
2023-04-05T16:20:23.686Z,45.26
2023-04-05T16:22:53.057Z,45.15
2023-04-05T16:25:23.351Z,46.16
2023-04-05T16:27:52.538Z,45.43
2023-04-05T16:30:21.607Z,45.82
2023-04-05T16:32:52.156Z,45.85
2023-04-05T16:35:21.646Z,45.00
2023-04-05T16:37:50.764Z,45.52
2023-04-05T16:40:19.865Z,45.83
2023-04-05T16:42:50.333Z,45.66
2023-04-05T16:45:19.249Z,45.87
2023-04-05T16:47:48.637Z,46.19
2023-04-05T16:50:17.688Z,46.09
2023-04-05T16:52:47.069Z,45.89
2023-04-05T16:55:15.942Z,45.99
2023-04-05T16:57:44.994Z,46.37
2023-04-05T17:00:16.763Z,45.90
2023-04-05T17:02:45.965Z,46.29
2023-04-05T17:05:14.775Z,46.50
2023-04-05T17:07:44.133Z,46.47
2023-04-05T17:10:13.147Z,46.18
2023-04-05T17:12:42.304Z,46.19
2023-04-05T17:15:12.328Z,46.11
2023-04-05T17:17:43.007Z,46.68
2023-04-05T17:20:13.497Z,46.42
2023-04-05T17:22:42.698Z,46.28
2023-04-05T17:25:11.939Z,46.92
2023-04-05T17:27:41.639Z,46.91
2023-04-05T17:30:11.886Z,46.40
2023-04-05T17:32:42.694Z,46.64
2023-04-05T17:35:11.890Z,46.73
2023-04-05T17:37:41.060Z,46.60
2023-04-05T17:40:11.056Z,46.62
2023-04-05T17:42:40.141Z,46.28
2023-04-05T17:45:10.303Z,47.42
2023-04-05T17:47:39.597Z,47.37
2023-04-05T17:50:11.177Z,47.28
2023-04-05T17:52:40.537Z,47.37
2023-04-05T17:55:10.481Z,47.35
2023-04-05T17:57:39.669Z,47.13
2023-04-05T18:00:10.688Z,47.61
2023-04-05T18:02:40.873Z,47.50
2023-04-05T18:05:11.910Z,47.65
2023-04-05T18:07:42.655Z,47.53
2023-04-05T18:10:12.569Z,47.88
2023-04-05T18:12:41.819Z,47.46
2023-04-05T18:15:11.590Z,48.08
2023-04-05T18:17:41.252Z,47.72
2023-04-05T18:20:13.182Z,48.20
2023-04-05T18:22:42.396Z,47.72
2023-04-05T18:25:13.376Z,47.69
2023-04-05T18:27:42.672Z,47.42
2023-04-05T18:30:12.702Z,46.91
2023-04-05T18:32:45.321Z,47.21
2023-04-05T18:35:15.500Z,46.91
2023-04-05T18:37:44.510Z,47.25
2023-04-05T18:40:13.694Z,46.95
2023-04-05T18:42:43.746Z,47.17
2023-04-05T18:45:13.193Z,46.71
2023-04-05T18:47:42.245Z,46.51
2023-04-05T18:50:12.325Z,46.83
2023-04-05T18:52:42.886Z,47.08
2023-04-05T18:55:11.770Z,47.42
2023-04-05T18:57:41.033Z,47.64
2023-04-05T19:00:11.173Z,47.42
2023-04-05T19:02:41.151Z,47.17
2023-04-05T19:05:11.340Z,47.41
2023-04-05T19:07:41.872Z,46.73
2023-04-05T19:10:11.980Z,47.35
2023-04-05T19:12:41.337Z,47.17
2023-04-05T19:15:11.337Z,46.93
2023-04-05T19:17:40.625Z,47.38
2023-04-05T19:20:10.549Z,47.49
2023-04-05T19:22:39.713Z,46.91
2023-04-05T19:25:10.887Z,47.40
2023-04-05T19:27:41.360Z,47.70
2023-04-05T19:30:12.543Z,46.92
2023-04-05T19:32:41.832Z,46.78
2023-04-05T19:35:12.000Z,46.86
2023-04-05T19:37:41.102Z,47.26
2023-04-05T19:40:12.388Z,46.86
2023-04-05T19:42:47.842Z,46.54
2023-04-05T19:45:25.382Z,47.05
2023-04-05T19:47:56.315Z,47.57
2023-04-05T19:50:48.458Z,47.28
2023-04-05T19:53:42.608Z,47.91
2023-04-05T19:56:18.472Z,47.87
2023-04-05T19:58:51.093Z,47.17
2023-04-05T20:01:34.637Z,46.78
2023-04-05T20:04:12.237Z,47.27
2023-04-05T20:06:42.602Z,47.43
2023-04-05T20:09:13.633Z,47.24
2023-04-05T20:11:55.944Z,48.30
2023-04-05T20:14:30.692Z,47.06
2023-04-05T20:17:00.163Z,47.14
2023-04-05T20:19:31.200Z,46.52
2023-04-05T20:22:01.561Z,45.68
2023-04-05T20:24:30.791Z,46.16
2023-04-05T20:27:01.270Z,45.47
2023-04-05T20:29:32.430Z,45.52
2023-04-05T20:32:03.069Z,45.23
2023-04-05T20:34:34.850Z,46.07
2023-04-05T20:37:07.513Z,45.35
2023-04-05T20:39:36.847Z,46.01
2023-04-05T20:42:07.668Z,46.79
2023-04-05T20:44:36.846Z,46.93
2023-04-05T20:47:05.722Z,47.31
2023-04-05T20:49:35.137Z,46.87
2023-04-05T20:52:07.753Z,46.79
2023-04-05T20:54:36.958Z,46.47
2023-04-05T20:57:07.147Z,46.21
2023-04-05T20:59:36.554Z,46.78
2023-04-05T21:02:05.408Z,46.46
2023-04-05T21:04:34.695Z,46.42
2023-04-05T21:07:03.813Z,47.00
2023-04-05T21:09:32.831Z,46.33
2023-04-05T21:12:01.641Z,46.15
2023-04-05T21:14:31.940Z,46.72
2023-04-05T21:17:00.806Z,46.70
2023-04-05T21:19:30.002Z,45.97
2023-04-05T21:21:58.770Z,46.42
2023-04-05T21:24:27.788Z,46.09
2023-04-05T21:26:56.878Z,46.48
2023-04-05T21:29:26.088Z,46.96
2023-04-05T21:31:56.291Z,46.54
2023-04-05T21:34:25.390Z,46.41
2023-04-05T21:36:54.351Z,46.85
2023-04-05T21:39:23.573Z,47.99
2023-04-05T21:41:52.292Z,47.37
2023-04-05T21:44:21.351Z,46.96
2023-04-05T21:46:50.225Z,47.78
2023-04-05T21:49:20.728Z,47.58
2023-04-05T21:51:49.478Z,46.72
2023-04-05T21:54:18.511Z,47.81
2023-04-05T21:56:47.322Z,46.76
2023-04-05T21:59:16.265Z,47.53
2023-04-05T22:01:45.105Z,47.30
2023-04-05T22:04:14.149Z,47.08
2023-04-05T22:06:44.335Z,46.79
2023-04-05T22:09:13.429Z,47.64
2023-04-05T22:11:42.292Z,47.17
2023-04-05T22:14:11.443Z,47.20
2023-04-05T22:16:40.218Z,47.62
2023-04-05T22:19:11.574Z,46.90
2023-04-05T22:21:41.349Z,47.72
2023-04-05T22:24:12.722Z,47.51
2023-04-05T22:26:42.192Z,46.97
2023-04-05T22:29:11.480Z,47.20
2023-04-05T22:31:40.347Z,47.22
2023-04-05T22:34:09.439Z,47.40
2023-04-05T22:36:38.158Z,46.88
2023-04-05T22:39:07.550Z,47.68
2023-04-05T22:41:37.831Z,46.97
2023-04-05T22:44:07.572Z,46.73
2023-04-05T22:46:37.785Z,47.25
2023-04-05T22:49:07.309Z,47.26
2023-04-05T22:51:36.343Z,46.80
2023-04-05T22:54:05.724Z,47.43
2023-04-05T22:56:34.389Z,47.90
2023-04-05T22:59:04.834Z,46.31
2023-04-05T23:01:33.661Z,46.83
2023-04-05T23:04:02.788Z,47.43
2023-04-05T23:06:32.237Z,47.83
2023-04-05T23:09:03.188Z,47.74
2023-04-05T23:11:32.261Z,47.29
2023-04-05T23:14:01.592Z,47.27
2023-04-05T23:16:31.794Z,47.21
2023-04-05T23:19:00.877Z,46.51
2023-04-05T23:21:29.668Z,47.03
2023-04-05T23:23:58.834Z,46.82
2023-04-05T23:26:29.016Z,47.37
2023-04-05T23:28:58.067Z,47.22
2023-04-05T23:31:26.858Z,47.29
2023-04-05T23:33:57.480Z,47.37
2023-04-05T23:36:27.674Z,47.76
2023-04-05T23:38:58.650Z,47.99
2023-04-05T23:41:27.472Z,47.71
2023-04-05T23:43:56.934Z,47.07
2023-04-05T23:46:26.389Z,47.31
2023-04-05T23:48:56.862Z,46.29
2023-04-05T23:51:26.437Z,46.55
2023-04-05T23:53:55.409Z,46.42
2023-04-05T23:56:24.129Z,47.19
2023-04-05T23:58:53.214Z,47.26
